sensor_id;sensor_type;location;lat;lon;timestamp;P1;durP1;ratioP1;P2;durP2;ratioP2
6356;SDS011;3211;53.452;-2.264;2023-09-19T00:00:32;2.33;;;1.27;;
6356;SDS011;3211;53.452;-2.264;2023-09-19T00:03:14;1.80;;;1.20;;
6356;SDS011;3211;53.452;-2.264;2023-09-19T00:05:57;2.73;;;1.17;;
6356;SDS011;3211;53.452;-2.264;2023-09-19T00:08:40;5.10;;;1.30;;
6356;SDS011;3211;53.452;-2.264;2023-09-19T00:11:24;3.23;;;1.70;;
6356;SDS011;3211;53.452;-2.264;2023-09-19T00:14:06;4.00;;;1.43;;
6356;SDS011;3211;53.452;-2.264;2023-09-19T00:16:50;2.90;;;1.37;;
6356;SDS011;3211;53.452;-2.264;2023-09-19T00:19:32;1.47;;;1.30;;
6356;SDS011;3211;53.452;-2.264;2023-09-19T00:22:14;1.50;;;1.20;;
6356;SDS011;3211;53.452;-2.264;2023-09-19T00:24:59;2.33;;;1.33;;
6356;SDS011;3211;53.452;-2.264;2023-09-19T00:27:41;8.30;;;1.50;;
6356;SDS011;3211;53.452;-2.264;2023-09-19T00:30:25;3.87;;;1.30;;
6356;SDS011;3211;53.452;-2.264;2023-09-19T00:33:08;3.27;;;1.30;;
6356;SDS011;3211;53.452;-2.264;2023-09-19T00:35:52;1.87;;;1.30;;
6356;SDS011;3211;53.452;-2.264;2023-09-19T00:38:35;3.60;;;1.33;;
6356;SDS011;3211;53.452;-2.264;2023-09-19T00:41:16;6.87;;;1.77;;
6356;SDS011;3211;53.452;-2.264;2023-09-19T00:43:58;2.67;;;1.40;;
6356;SDS011;3211;53.452;-2.264;2023-09-19T00:46:41;3.87;;;1.80;;
6356;SDS011;3211;53.452;-2.264;2023-09-19T00:49:25;4.50;;;1.57;;
6356;SDS011;3211;53.452;-2.264;2023-09-19T00:52:07;2.00;;;1.13;;
6356;SDS011;3211;53.452;-2.264;2023-09-19T00:54:50;3.53;;;1.20;;
6356;SDS011;3211;53.452;-2.264;2023-09-19T00:57:32;2.30;;;1.40;;
6356;SDS011;3211;53.452;-2.264;2023-09-19T01:00:15;8.50;;;1.30;;
6356;SDS011;3211;53.452;-2.264;2023-09-19T01:03:00;2.97;;;1.30;;
6356;SDS011;3211;53.452;-2.264;2023-09-19T01:05:43;3.90;;;1.43;;
6356;SDS011;3211;53.452;-2.264;2023-09-19T01:08:25;4.67;;;1.70;;
6356;SDS011;3211;53.452;-2.264;2023-09-19T01:11:11;3.93;;;1.30;;
6356;SDS011;3211;53.452;-2.264;2023-09-19T01:13:59;2.30;;;1.20;;
6356;SDS011;3211;53.452;-2.264;2023-09-19T01:16:50;2.40;;;1.60;;
6356;SDS011;3211;53.452;-2.264;2023-09-19T01:23:16;5.13;;;1.40;;
6356;SDS011;3211;53.452;-2.264;2023-09-19T01:26:05;3.73;;;1.40;;
6356;SDS011;3211;53.452;-2.264;2023-09-19T01:29:13;3.00;;;1.60;;
6356;SDS011;3211;53.452;-2.264;2023-09-19T01:32:11;4.10;;;1.73;;
6356;SDS011;3211;53.452;-2.264;2023-09-19T01:34:55;3.37;;;1.80;;
6356;SDS011;3211;53.452;-2.264;2023-09-19T01:37:44;3.17;;;1.50;;
6356;SDS011;3211;53.452;-2.264;2023-09-19T01:40:26;3.30;;;1.60;;
6356;SDS011;3211;53.452;-2.264;2023-09-19T01:43:09;8.53;;;1.67;;
6356;SDS011;3211;53.452;-2.264;2023-09-19T01:46:04;5.60;;;1.17;;
6356;SDS011;3211;53.452;-2.264;2023-09-19T01:48:57;6.03;;;1.87;;
6356;SDS011;3211;53.452;-2.264;2023-09-19T01:51:51;4.03;;;1.80;;
6356;SDS011;3211;53.452;-2.264;2023-09-19T01:54:40;3.27;;;1.50;;
6356;SDS011;3211;53.452;-2.264;2023-09-19T01:57:27;2.10;;;1.30;;
6356;SDS011;3211;53.452;-2.264;2023-09-19T02:00:13;10.83;;;2.10;;
6356;SDS011;3211;53.452;-2.264;2023-09-19T02:02:57;3.23;;;1.40;;
6356;SDS011;3211;53.452;-2.264;2023-09-19T02:05:41;6.67;;;2.00;;
6356;SDS011;3211;53.452;-2.264;2023-09-19T02:08:31;3.30;;;1.70;;
6356;SDS011;3211;53.452;-2.264;2023-09-19T02:11:14;5.33;;;1.80;;
6356;SDS011;3211;53.452;-2.264;2023-09-19T02:13:56;4.70;;;1.83;;
6356;SDS011;3211;53.452;-2.264;2023-09-19T02:16:39;3.83;;;1.53;;
6356;SDS011;3211;53.452;-2.264;2023-09-19T02:19:22;3.43;;;1.90;;
6356;SDS011;3211;53.452;-2.264;2023-09-19T02:22:05;6.53;;;1.70;;
6356;SDS011;3211;53.452;-2.264;2023-09-19T02:24:50;5.27;;;1.87;;
6356;SDS011;3211;53.452;-2.264;2023-09-19T02:27:32;6.93;;;2.67;;
6356;SDS011;3211;53.452;-2.264;2023-09-19T02:30:14;3.93;;;2.10;;
6356;SDS011;3211;53.452;-2.264;2023-09-19T02:33:00;5.80;;;1.60;;
6356;SDS011;3211;53.452;-2.264;2023-09-19T02:35:43;3.23;;;1.63;;
6356;SDS011;3211;53.452;-2.264;2023-09-19T02:38:26;5.20;;;2.30;;
6356;SDS011;3211;53.452;-2.264;2023-09-19T02:41:11;5.93;;;2.00;;
6356;SDS011;3211;53.452;-2.264;2023-09-19T02:43:53;4.70;;;1.80;;
6356;SDS011;3211;53.452;-2.264;2023-09-19T02:46:35;4.67;;;1.63;;
6356;SDS011;3211;53.452;-2.264;2023-09-19T02:49:17;6.23;;;1.67;;
6356;SDS011;3211;53.452;-2.264;2023-09-19T02:51:59;4.03;;;1.90;;
6356;SDS011;3211;53.452;-2.264;2023-09-19T02:54:44;3.63;;;1.77;;
6356;SDS011;3211;53.452;-2.264;2023-09-19T02:57:26;4.37;;;1.97;;
6356;SDS011;3211;53.452;-2.264;2023-09-19T03:00:09;2.97;;;1.73;;
6356;SDS011;3211;53.452;-2.264;2023-09-19T03:02:53;4.63;;;2.00;;
6356;SDS011;3211;53.452;-2.264;2023-09-19T03:05:36;8.03;;;2.90;;
6356;SDS011;3211;53.452;-2.264;2023-09-19T03:08:27;5.60;;;1.90;;
6356;SDS011;3211;53.452;-2.264;2023-09-19T03:11:10;5.30;;;1.80;;
6356;SDS011;3211;53.452;-2.264;2023-09-19T03:13:53;3.87;;;1.50;;
6356;SDS011;3211;53.452;-2.264;2023-09-19T03:16:35;3.30;;;1.70;;
6356;SDS011;3211;53.452;-2.264;2023-09-19T03:19:17;3.10;;;1.80;;
6356;SDS011;3211;53.452;-2.264;2023-09-19T03:22:01;4.23;;;2.10;;
6356;SDS011;3211;53.452;-2.264;2023-09-19T03:24:42;6.53;;;1.67;;
6356;SDS011;3211;53.452;-2.264;2023-09-19T03:27:30;7.60;;;1.80;;
6356;SDS011;3211;53.452;-2.264;2023-09-19T03:30:15;4.07;;;1.50;;
6356;SDS011;3211;53.452;-2.264;2023-09-19T03:33:01;4.37;;;1.77;;
6356;SDS011;3211;53.452;-2.264;2023-09-19T03:35:45;6.30;;;1.83;;
6356;SDS011;3211;53.452;-2.264;2023-09-19T03:38:33;2.80;;;1.67;;
6356;SDS011;3211;53.452;-2.264;2023-09-19T03:41:16;4.53;;;1.83;;
6356;SDS011;3211;53.452;-2.264;2023-09-19T03:43:59;5.93;;;2.00;;
6356;SDS011;3211;53.452;-2.264;2023-09-19T03:46:42;3.90;;;1.93;;
6356;SDS011;3211;53.452;-2.264;2023-09-19T03:49:24;2.47;;;1.60;;
6356;SDS011;3211;53.452;-2.264;2023-09-19T03:52:06;4.30;;;2.00;;
6356;SDS011;3211;53.452;-2.264;2023-09-19T03:54:47;6.53;;;2.00;;
6356;SDS011;3211;53.452;-2.264;2023-09-19T03:57:30;5.93;;;1.90;;
6356;SDS011;3211;53.452;-2.264;2023-09-19T04:00:13;2.53;;;1.80;;
6356;SDS011;3211;53.452;-2.264;2023-09-19T04:02:58;2.00;;;1.43;;
6356;SDS011;3211;53.452;-2.264;2023-09-19T04:05:42;2.90;;;1.70;;
6356;SDS011;3211;53.452;-2.264;2023-09-19T04:08:24;3.30;;;1.57;;
6356;SDS011;3211;53.452;-2.264;2023-09-19T04:11:06;3.57;;;1.93;;
6356;SDS011;3211;53.452;-2.264;2023-09-19T04:13:50;2.20;;;1.70;;
6356;SDS011;3211;53.452;-2.264;2023-09-19T04:16:34;5.60;;;1.70;;
6356;SDS011;3211;53.452;-2.264;2023-09-19T04:19:15;7.30;;;1.53;;
6356;SDS011;3211;53.452;-2.264;2023-09-19T04:21:57;6.03;;;1.50;;
6356;SDS011;3211;53.452;-2.264;2023-09-19T04:24:39;2.83;;;1.50;;
6356;SDS011;3211;53.452;-2.264;2023-09-19T04:27:21;3.73;;;1.63;;
6356;SDS011;3211;53.452;-2.264;2023-09-19T04:30:04;4.97;;;1.80;;
6356;SDS011;3211;53.452;-2.264;2023-09-19T04:32:52;2.77;;;2.03;;
6356;SDS011;3211;53.452;-2.264;2023-09-19T04:35:34;4.70;;;1.73;;
6356;SDS011;3211;53.452;-2.264;2023-09-19T04:38:16;3.27;;;1.30;;
6356;SDS011;3211;53.452;-2.264;2023-09-19T04:40:59;4.10;;;1.40;;
6356;SDS011;3211;53.452;-2.264;2023-09-19T04:43:41;3.03;;;1.50;;
6356;SDS011;3211;53.452;-2.264;2023-09-19T04:46:23;5.73;;;1.77;;
6356;SDS011;3211;53.452;-2.264;2023-09-19T04:49:06;4.33;;;1.70;;
6356;SDS011;3211;53.452;-2.264;2023-09-19T04:51:48;4.00;;;1.60;;
6356;SDS011;3211;53.452;-2.264;2023-09-19T04:54:30;7.30;;;1.90;;
6356;SDS011;3211;53.452;-2.264;2023-09-19T04:57:12;6.73;;;1.70;;
6356;SDS011;3211;53.452;-2.264;2023-09-19T04:59:54;4.97;;;2.13;;
6356;SDS011;3211;53.452;-2.264;2023-09-19T05:02:36;3.10;;;1.43;;
6356;SDS011;3211;53.452;-2.264;2023-09-19T05:05:19;5.60;;;1.90;;
6356;SDS011;3211;53.452;-2.264;2023-09-19T05:08:02;3.87;;;1.67;;
6356;SDS011;3211;53.452;-2.264;2023-09-19T05:10:45;5.00;;;2.20;;
6356;SDS011;3211;53.452;-2.264;2023-09-19T05:13:27;6.83;;;1.63;;
6356;SDS011;3211;53.452;-2.264;2023-09-19T05:16:09;4.53;;;1.63;;
6356;SDS011;3211;53.452;-2.264;2023-09-19T05:18:51;3.87;;;1.90;;
6356;SDS011;3211;53.452;-2.264;2023-09-19T05:21:34;3.90;;;1.80;;
6356;SDS011;3211;53.452;-2.264;2023-09-19T05:24:16;3.20;;;1.50;;
6356;SDS011;3211;53.452;-2.264;2023-09-19T05:26:58;5.23;;;2.03;;
6356;SDS011;3211;53.452;-2.264;2023-09-19T05:29:41;2.47;;;1.50;;
6356;SDS011;3211;53.452;-2.264;2023-09-19T05:32:23;2.83;;;1.40;;
6356;SDS011;3211;53.452;-2.264;2023-09-19T05:35:05;8.50;;;2.17;;
6356;SDS011;3211;53.452;-2.264;2023-09-19T05:37:51;7.73;;;2.50;;
6356;SDS011;3211;53.452;-2.264;2023-09-19T05:40:35;2.60;;;1.70;;
6356;SDS011;3211;53.452;-2.264;2023-09-19T05:43:18;4.17;;;1.73;;
6356;SDS011;3211;53.452;-2.264;2023-09-19T05:46:00;2.30;;;1.50;;
6356;SDS011;3211;53.452;-2.264;2023-09-19T05:48:43;3.17;;;1.77;;
6356;SDS011;3211;53.452;-2.264;2023-09-19T05:51:28;4.13;;;1.63;;
6356;SDS011;3211;53.452;-2.264;2023-09-19T05:54:11;3.00;;;1.57;;
6356;SDS011;3211;53.452;-2.264;2023-09-19T05:56:53;3.30;;;1.30;;
6356;SDS011;3211;53.452;-2.264;2023-09-19T05:59:35;4.60;;;2.00;;
6356;SDS011;3211;53.452;-2.264;2023-09-19T06:02:17;2.80;;;1.90;;
6356;SDS011;3211;53.452;-2.264;2023-09-19T06:05:00;3.17;;;1.47;;
6356;SDS011;3211;53.452;-2.264;2023-09-19T06:07:42;4.47;;;1.77;;
6356;SDS011;3211;53.452;-2.264;2023-09-19T06:10:25;3.07;;;1.90;;
6356;SDS011;3211;53.452;-2.264;2023-09-19T06:13:08;4.80;;;2.00;;
6356;SDS011;3211;53.452;-2.264;2023-09-19T06:15:50;3.37;;;1.50;;
6356;SDS011;3211;53.452;-2.264;2023-09-19T06:18:32;6.00;;;2.13;;
6356;SDS011;3211;53.452;-2.264;2023-09-19T06:21:14;6.87;;;1.73;;
6356;SDS011;3211;53.452;-2.264;2023-09-19T06:23:56;5.23;;;2.07;;
6356;SDS011;3211;53.452;-2.264;2023-09-19T06:26:40;8.37;;;2.60;;
6356;SDS011;3211;53.452;-2.264;2023-09-19T06:29:24;4.53;;;1.80;;
6356;SDS011;3211;53.452;-2.264;2023-09-19T06:32:07;5.53;;;1.70;;
6356;SDS011;3211;53.452;-2.264;2023-09-19T06:34:51;6.17;;;2.93;;
6356;SDS011;3211;53.452;-2.264;2023-09-19T06:37:34;5.83;;;1.40;;
6356;SDS011;3211;53.452;-2.264;2023-09-19T06:40:18;4.17;;;1.70;;
6356;SDS011;3211;53.452;-2.264;2023-09-19T06:43:02;3.10;;;1.83;;
6356;SDS011;3211;53.452;-2.264;2023-09-19T06:45:45;1.90;;;1.50;;
6356;SDS011;3211;53.452;-2.264;2023-09-19T06:48:28;3.67;;;1.70;;
6356;SDS011;3211;53.452;-2.264;2023-09-19T06:51:10;6.23;;;1.63;;
6356;SDS011;3211;53.452;-2.264;2023-09-19T06:53:55;5.30;;;1.73;;
6356;SDS011;3211;53.452;-2.264;2023-09-19T06:56:38;4.63;;;1.80;;
6356;SDS011;3211;53.452;-2.264;2023-09-19T06:59:23;4.37;;;2.00;;
6356;SDS011;3211;53.452;-2.264;2023-09-19T07:02:05;6.70;;;1.83;;
6356;SDS011;3211;53.452;-2.264;2023-09-19T07:04:47;4.23;;;1.60;;
6356;SDS011;3211;53.452;-2.264;2023-09-19T07:07:29;3.80;;;1.73;;
6356;SDS011;3211;53.452;-2.264;2023-09-19T07:10:15;2.73;;;1.80;;
6356;SDS011;3211;53.452;-2.264;2023-09-19T07:12:58;2.63;;;1.90;;
6356;SDS011;3211;53.452;-2.264;2023-09-19T07:15:42;3.23;;;1.90;;
6356;SDS011;3211;53.452;-2.264;2023-09-19T07:18:27;5.17;;;1.93;;
6356;SDS011;3211;53.452;-2.264;2023-09-19T07:21:09;4.33;;;2.20;;
6356;SDS011;3211;53.452;-2.264;2023-09-19T07:23:55;5.37;;;1.40;;
6356;SDS011;3211;53.452;-2.264;2023-09-19T07:26:37;2.57;;;1.70;;
6356;SDS011;3211;53.452;-2.264;2023-09-19T07:29:20;2.57;;;1.50;;
6356;SDS011;3211;53.452;-2.264;2023-09-19T07:32:03;2.10;;;1.60;;
6356;SDS011;3211;53.452;-2.264;2023-09-19T07:34:48;2.73;;;1.80;;
6356;SDS011;3211;53.452;-2.264;2023-09-19T07:37:30;2.03;;;1.90;;
6356;SDS011;3211;53.452;-2.264;2023-09-19T07:40:13;2.30;;;1.53;;
6356;SDS011;3211;53.452;-2.264;2023-09-19T07:42:56;1.80;;;1.60;;
6356;SDS011;3211;53.452;-2.264;2023-09-19T07:45:41;3.37;;;1.87;;
6356;SDS011;3211;53.452;-2.264;2023-09-19T07:48:24;4.23;;;2.17;;
6356;SDS011;3211;53.452;-2.264;2023-09-19T07:51:07;6.00;;;1.77;;
6356;SDS011;3211;53.452;-2.264;2023-09-19T07:53:49;6.50;;;1.70;;
6356;SDS011;3211;53.452;-2.264;2023-09-19T07:56:31;2.67;;;1.87;;
6356;SDS011;3211;53.452;-2.264;2023-09-19T07:59:14;2.10;;;1.90;;
6356;SDS011;3211;53.452;-2.264;2023-09-19T08:01:56;1.87;;;1.70;;
6356;SDS011;3211;53.452;-2.264;2023-09-19T08:04:39;2.63;;;1.80;;
6356;SDS011;3211;53.452;-2.264;2023-09-19T08:07:21;2.80;;;1.40;;
6356;SDS011;3211;53.452;-2.264;2023-09-19T08:10:04;2.47;;;1.80;;
6356;SDS011;3211;53.452;-2.264;2023-09-19T08:12:48;2.17;;;1.63;;
6356;SDS011;3211;53.452;-2.264;2023-09-19T08:15:36;2.77;;;1.10;;
6356;SDS011;3211;53.452;-2.264;2023-09-19T08:18:24;1.70;;;1.23;;
6356;SDS011;3211;53.452;-2.264;2023-09-19T08:21:11;1.40;;;1.20;;
6356;SDS011;3211;53.452;-2.264;2023-09-19T08:23:54;3.77;;;1.30;;
6356;SDS011;3211;53.452;-2.264;2023-09-19T08:26:36;1.50;;;1.40;;
6356;SDS011;3211;53.452;-2.264;2023-09-19T08:29:18;1.50;;;1.40;;
6356;SDS011;3211;53.452;-2.264;2023-09-19T08:32:00;1.47;;;1.37;;
6356;SDS011;3211;53.452;-2.264;2023-09-19T08:34:42;1.50;;;1.10;;
6356;SDS011;3211;53.452;-2.264;2023-09-19T08:37:26;4.47;;;1.50;;
6356;SDS011;3211;53.452;-2.264;2023-09-19T08:40:08;1.20;;;1.10;;
6356;SDS011;3211;53.452;-2.264;2023-09-19T08:42:54;1.60;;;1.10;;
6356;SDS011;3211;53.452;-2.264;2023-09-19T08:45:36;1.67;;;1.20;;
6356;SDS011;3211;53.452;-2.264;2023-09-19T08:48:22;1.33;;;1.03;;
6356;SDS011;3211;53.452;-2.264;2023-09-19T08:51:06;1.17;;;1.07;;
6356;SDS011;3211;53.452;-2.264;2023-09-19T08:53:54;1.30;;;1.00;;
6356;SDS011;3211;53.452;-2.264;2023-09-19T08:56:45;1.17;;;1.07;;
6356;SDS011;3211;53.452;-2.264;2023-09-19T08:59:28;1.20;;;0.90;;
6356;SDS011;3211;53.452;-2.264;2023-09-19T09:02:11;1.20;;;1.10;;
6356;SDS011;3211;53.452;-2.264;2023-09-19T09:04:56;2.73;;;0.93;;
6356;SDS011;3211;53.452;-2.264;2023-09-19T09:07:39;1.23;;;1.00;;
6356;SDS011;3211;53.452;-2.264;2023-09-19T09:10:23;1.10;;;1.00;;
6356;SDS011;3211;53.452;-2.264;2023-09-19T09:13:05;1.10;;;1.00;;
6356;SDS011;3211;53.452;-2.264;2023-09-19T09:15:47;1.97;;;0.90;;
6356;SDS011;3211;53.452;-2.264;2023-09-19T09:18:30;1.30;;;1.00;;
6356;SDS011;3211;53.452;-2.264;2023-09-19T09:21:12;1.63;;;1.00;;
6356;SDS011;3211;53.452;-2.264;2023-09-19T09:23:55;1.67;;;1.00;;
6356;SDS011;3211;53.452;-2.264;2023-09-19T09:26:42;1.57;;;0.90;;
6356;SDS011;3211;53.452;-2.264;2023-09-19T09:29:40;1.00;;;0.90;;
6356;SDS011;3211;53.452;-2.264;2023-09-19T09:32:24;2.70;;;1.00;;
6356;SDS011;3211;53.452;-2.264;2023-09-19T09:35:08;1.00;;;0.90;;
6356;SDS011;3211;53.452;-2.264;2023-09-19T09:37:59;1.20;;;0.87;;
6356;SDS011;3211;53.452;-2.264;2023-09-19T09:40:47;1.10;;;1.00;;
6356;SDS011;3211;53.452;-2.264;2023-09-19T09:43:40;0.93;;;0.87;;
6356;SDS011;3211;53.452;-2.264;2023-09-19T09:46:24;0.87;;;0.83;;
6356;SDS011;3211;53.452;-2.264;2023-09-19T09:49:39;0.80;;;0.80;;
6356;SDS011;3211;53.452;-2.264;2023-09-19T09:52:20;0.93;;;0.83;;
6356;SDS011;3211;53.452;-2.264;2023-09-19T09:55:04;0.90;;;0.80;;
6356;SDS011;3211;53.452;-2.264;2023-09-19T09:57:48;1.00;;;0.90;;
6356;SDS011;3211;53.452;-2.264;2023-09-19T10:00:58;1.00;;;0.90;;
6356;SDS011;3211;53.452;-2.264;2023-09-19T10:03:48;0.93;;;0.87;;
6356;SDS011;3211;53.452;-2.264;2023-09-19T10:06:40;1.70;;;1.00;;
6356;SDS011;3211;53.452;-2.264;2023-09-19T10:09:27;1.00;;;0.90;;
6356;SDS011;3211;53.452;-2.264;2023-09-19T10:12:09;1.00;;;0.90;;
6356;SDS011;3211;53.452;-2.264;2023-09-19T10:14:54;1.00;;;0.90;;
6356;SDS011;3211;53.452;-2.264;2023-09-19T10:17:42;1.00;;;0.90;;
6356;SDS011;3211;53.452;-2.264;2023-09-19T10:20:25;1.00;;;0.90;;
6356;SDS011;3211;53.452;-2.264;2023-09-19T10:23:17;1.03;;;0.93;;
6356;SDS011;3211;53.452;-2.264;2023-09-19T10:26:03;1.57;;;1.10;;
6356;SDS011;3211;53.452;-2.264;2023-09-19T10:28:46;1.00;;;0.90;;
6356;SDS011;3211;53.452;-2.264;2023-09-19T10:31:31;1.10;;;1.00;;
6356;SDS011;3211;53.452;-2.264;2023-09-19T10:34:16;1.30;;;1.00;;
6356;SDS011;3211;53.452;-2.264;2023-09-19T10:36:59;1.00;;;0.90;;
6356;SDS011;3211;53.452;-2.264;2023-09-19T10:39:46;1.20;;;1.00;;
6356;SDS011;3211;53.452;-2.264;2023-09-19T10:42:29;5.70;;;1.00;;
6356;SDS011;3211;53.452;-2.264;2023-09-19T10:45:15;1.00;;;0.90;;
6356;SDS011;3211;53.452;-2.264;2023-09-19T10:48:00;1.20;;;1.10;;
6356;SDS011;3211;53.452;-2.264;2023-09-19T10:50:48;1.30;;;1.20;;
6356;SDS011;3211;53.452;-2.264;2023-09-19T10:53:39;1.00;;;0.90;;
6356;SDS011;3211;53.452;-2.264;2023-09-19T10:56:26;1.10;;;1.00;;
6356;SDS011;3211;53.452;-2.264;2023-09-19T10:59:14;1.13;;;0.90;;
6356;SDS011;3211;53.452;-2.264;2023-09-19T11:01:58;1.00;;;0.90;;
6356;SDS011;3211;53.452;-2.264;2023-09-19T11:04:41;1.10;;;0.90;;
6356;SDS011;3211;53.452;-2.264;2023-09-19T11:07:26;1.10;;;1.00;;
6356;SDS011;3211;53.452;-2.264;2023-09-19T11:10:10;1.43;;;1.00;;
6356;SDS011;3211;53.452;-2.264;2023-09-19T11:13:28;1.20;;;1.10;;
6356;SDS011;3211;53.452;-2.264;2023-09-19T11:16:11;1.43;;;1.00;;
6356;SDS011;3211;53.452;-2.264;2023-09-19T11:19:03;1.63;;;1.00;;
6356;SDS011;3211;53.452;-2.264;2023-09-19T11:21:53;1.00;;;0.90;;
6356;SDS011;3211;53.452;-2.264;2023-09-19T11:24:38;1.00;;;0.90;;
6356;SDS011;3211;53.452;-2.264;2023-09-19T11:27:20;1.10;;;0.90;;
6356;SDS011;3211;53.452;-2.264;2023-09-19T11:33:16;1.20;;;1.10;;
6356;SDS011;3211;53.452;-2.264;2023-09-19T11:36:01;2.03;;;1.00;;
6356;SDS011;3211;53.452;-2.264;2023-09-19T11:38:57;1.80;;;1.03;;
6356;SDS011;3211;53.452;-2.264;2023-09-19T11:41:42;1.33;;;1.00;;
6356;SDS011;3211;53.452;-2.264;2023-09-19T11:44:36;1.10;;;1.00;;
6356;SDS011;3211;53.452;-2.264;2023-09-19T11:47:18;1.70;;;0.90;;
6356;SDS011;3211;53.452;-2.264;2023-09-19T11:50:02;0.90;;;0.80;;
6356;SDS011;3211;53.452;-2.264;2023-09-19T11:52:51;1.67;;;1.10;;
6356;SDS011;3211;53.452;-2.264;2023-09-19T11:55:35;1.13;;;1.03;;
6356;SDS011;3211;53.452;-2.264;2023-09-19T11:58:20;1.50;;;1.07;;
6356;SDS011;3211;53.452;-2.264;2023-09-19T12:01:05;1.00;;;0.90;;
6356;SDS011;3211;53.452;-2.264;2023-09-19T12:03:53;1.20;;;1.10;;
6356;SDS011;3211;53.452;-2.264;2023-09-19T12:06:38;2.53;;;1.10;;
6356;SDS011;3211;53.452;-2.264;2023-09-19T12:09:24;1.30;;;1.10;;
6356;SDS011;3211;53.452;-2.264;2023-09-19T12:12:07;1.33;;;1.07;;
6356;SDS011;3211;53.452;-2.264;2023-09-19T12:14:53;1.10;;;1.00;;
6356;SDS011;3211;53.452;-2.264;2023-09-19T12:17:37;2.43;;;1.13;;
6356;SDS011;3211;53.452;-2.264;2023-09-19T12:20:21;1.67;;;1.33;;
6356;SDS011;3211;53.452;-2.264;2023-09-19T12:23:03;1.63;;;1.53;;
6356;SDS011;3211;53.452;-2.264;2023-09-19T12:25:54;1.30;;;1.20;;
6356;SDS011;3211;53.452;-2.264;2023-09-19T12:28:40;1.47;;;1.17;;
6356;SDS011;3211;53.452;-2.264;2023-09-19T12:31:24;1.87;;;1.40;;
6356;SDS011;3211;53.452;-2.264;2023-09-19T12:34:07;1.20;;;1.10;;
6356;SDS011;3211;53.452;-2.264;2023-09-19T12:37:02;1.80;;;1.67;;
6356;SDS011;3211;53.452;-2.264;2023-09-19T12:39:51;1.20;;;1.10;;
6356;SDS011;3211;53.452;-2.264;2023-09-19T12:42:35;1.37;;;1.10;;
6356;SDS011;3211;53.452;-2.264;2023-09-19T12:45:17;1.10;;;1.00;;
6356;SDS011;3211;53.452;-2.264;2023-09-19T12:48:19;1.10;;;1.00;;
6356;SDS011;3211;53.452;-2.264;2023-09-19T12:51:10;4.70;;;1.30;;
6356;SDS011;3211;53.452;-2.264;2023-09-19T12:53:57;1.07;;;0.97;;
6356;SDS011;3211;53.452;-2.264;2023-09-19T12:56:39;1.70;;;1.20;;
6356;SDS011;3211;53.452;-2.264;2023-09-19T12:59:29;1.20;;;1.10;;
6356;SDS011;3211;53.452;-2.264;2023-09-19T13:02:12;1.20;;;1.10;;
6356;SDS011;3211;53.452;-2.264;2023-09-19T13:05:00;1.60;;;1.10;;
6356;SDS011;3211;53.452;-2.264;2023-09-19T13:07:47;1.20;;;1.10;;
6356;SDS011;3211;53.452;-2.264;2023-09-19T13:10:30;1.03;;;0.93;;
6356;SDS011;3211;53.452;-2.264;2023-09-19T13:13:24;1.07;;;0.90;;
6356;SDS011;3211;53.452;-2.264;2023-09-19T13:16:08;1.40;;;0.90;;
6356;SDS011;3211;53.452;-2.264;2023-09-19T13:18:54;1.00;;;0.90;;
6356;SDS011;3211;53.452;-2.264;2023-09-19T13:21:39;1.80;;;1.20;;
6356;SDS011;3211;53.452;-2.264;2023-09-19T13:24:29;1.00;;;0.90;;
6356;SDS011;3211;53.452;-2.264;2023-09-19T13:27:13;1.50;;;1.10;;
6356;SDS011;3211;53.452;-2.264;2023-09-19T13:29:55;1.83;;;1.20;;
6356;SDS011;3211;53.452;-2.264;2023-09-19T13:32:38;1.77;;;1.10;;
6356;SDS011;3211;53.452;-2.264;2023-09-19T13:35:20;1.10;;;1.00;;
6356;SDS011;3211;53.452;-2.264;2023-09-19T13:38:04;3.03;;;1.20;;
6356;SDS011;3211;53.452;-2.264;2023-09-19T13:40:46;2.23;;;1.10;;
6356;SDS011;3211;53.452;-2.264;2023-09-19T13:43:29;1.50;;;1.20;;
6356;SDS011;3211;53.452;-2.264;2023-09-19T13:46:11;1.20;;;1.00;;
6356;SDS011;3211;53.452;-2.264;2023-09-19T13:48:56;1.53;;;1.07;;
6356;SDS011;3211;53.452;-2.264;2023-09-19T13:51:39;1.60;;;1.07;;
6356;SDS011;3211;53.452;-2.264;2023-09-19T13:54:25;1.60;;;1.00;;
6356;SDS011;3211;53.452;-2.264;2023-09-19T13:57:07;1.00;;;0.90;;
6356;SDS011;3211;53.452;-2.264;2023-09-19T13:59:50;1.20;;;1.10;;
6356;SDS011;3211;53.452;-2.264;2023-09-19T14:02:34;1.20;;;0.90;;
6356;SDS011;3211;53.452;-2.264;2023-09-19T14:05:16;1.10;;;1.00;;
6356;SDS011;3211;53.452;-2.264;2023-09-19T14:07:59;1.13;;;1.03;;
6356;SDS011;3211;53.452;-2.264;2023-09-19T14:10:44;1.30;;;1.10;;
6356;SDS011;3211;53.452;-2.264;2023-09-19T14:13:26;1.10;;;1.00;;
6356;SDS011;3211;53.452;-2.264;2023-09-19T14:16:08;1.70;;;1.20;;
6356;SDS011;3211;53.452;-2.264;2023-09-19T14:18:50;2.00;;;1.23;;
6356;SDS011;3211;53.452;-2.264;2023-09-19T14:21:32;1.47;;;1.03;;
6356;SDS011;3211;53.452;-2.264;2023-09-19T14:24:16;1.30;;;1.00;;
6356;SDS011;3211;53.452;-2.264;2023-09-19T14:27:00;7.43;;;1.30;;
6356;SDS011;3211;53.452;-2.264;2023-09-19T14:29:43;1.37;;;1.10;;
6356;SDS011;3211;53.452;-2.264;2023-09-19T14:32:25;4.63;;;1.60;;
6356;SDS011;3211;53.452;-2.264;2023-09-19T14:35:07;6.07;;;1.30;;
6356;SDS011;3211;53.452;-2.264;2023-09-19T14:37:50;2.53;;;1.70;;
6356;SDS011;3211;53.452;-2.264;2023-09-19T14:40:32;4.20;;;1.83;;
6356;SDS011;3211;53.452;-2.264;2023-09-19T14:43:17;3.77;;;1.50;;
6356;SDS011;3211;53.452;-2.264;2023-09-19T14:46:02;4.50;;;2.20;;
6356;SDS011;3211;53.452;-2.264;2023-09-19T14:48:44;2.60;;;1.53;;
6356;SDS011;3211;53.452;-2.264;2023-09-19T14:51:28;4.07;;;1.70;;
6356;SDS011;3211;53.452;-2.264;2023-09-19T14:54:11;5.53;;;2.10;;
6356;SDS011;3211;53.452;-2.264;2023-09-19T14:56:53;5.40;;;1.77;;
6356;SDS011;3211;53.452;-2.264;2023-09-19T14:59:45;8.67;;;1.90;;
6356;SDS011;3211;53.452;-2.264;2023-09-19T15:02:27;8.27;;;2.43;;
6356;SDS011;3211;53.452;-2.264;2023-09-19T15:05:09;7.13;;;2.10;;
6356;SDS011;3211;53.452;-2.264;2023-09-19T15:07:52;7.30;;;2.10;;
6356;SDS011;3211;53.452;-2.264;2023-09-19T15:10:34;7.47;;;2.10;;
6356;SDS011;3211;53.452;-2.264;2023-09-19T15:13:16;6.47;;;2.07;;
6356;SDS011;3211;53.452;-2.264;2023-09-19T15:16:00;3.20;;;1.70;;
6356;SDS011;3211;53.452;-2.264;2023-09-19T15:18:43;10.47;;;2.50;;
6356;SDS011;3211;53.452;-2.264;2023-09-19T15:21:27;5.33;;;1.77;;
6356;SDS011;3211;53.452;-2.264;2023-09-19T15:24:10;2.57;;;1.60;;
6356;SDS011;3211;53.452;-2.264;2023-09-19T15:26:52;5.27;;;1.60;;
6356;SDS011;3211;53.452;-2.264;2023-09-19T15:29:35;6.43;;;2.27;;
6356;SDS011;3211;53.452;-2.264;2023-09-19T15:32:20;5.83;;;1.97;;
6356;SDS011;3211;53.452;-2.264;2023-09-19T15:35:02;5.30;;;2.00;;
6356;SDS011;3211;53.452;-2.264;2023-09-19T15:37:45;2.07;;;1.40;;
6356;SDS011;3211;53.452;-2.264;2023-09-19T15:40:27;6.60;;;1.60;;
6356;SDS011;3211;53.452;-2.264;2023-09-19T15:43:09;2.60;;;1.40;;
6356;SDS011;3211;53.452;-2.264;2023-09-19T15:45:52;4.30;;;1.83;;
6356;SDS011;3211;53.452;-2.264;2023-09-19T15:48:36;7.97;;;1.97;;
6356;SDS011;3211;53.452;-2.264;2023-09-19T15:51:18;5.43;;;1.83;;
6356;SDS011;3211;53.452;-2.264;2023-09-19T15:54:00;3.30;;;1.77;;
6356;SDS011;3211;53.452;-2.264;2023-09-19T15:56:43;2.47;;;1.50;;
6356;SDS011;3211;53.452;-2.264;2023-09-19T15:59:28;6.33;;;2.20;;
6356;SDS011;3211;53.452;-2.264;2023-09-19T16:02:11;3.67;;;2.00;;
6356;SDS011;3211;53.452;-2.264;2023-09-19T16:04:55;3.30;;;2.27;;
6356;SDS011;3211;53.452;-2.264;2023-09-19T16:07:37;9.10;;;1.80;;
6356;SDS011;3211;53.452;-2.264;2023-09-19T16:10:19;6.30;;;3.10;;
6356;SDS011;3211;53.452;-2.264;2023-09-19T16:13:02;8.00;;;2.37;;
6356;SDS011;3211;53.452;-2.264;2023-09-19T16:15:44;5.83;;;2.80;;
6356;SDS011;3211;53.452;-2.264;2023-09-19T16:18:26;3.07;;;1.67;;
6356;SDS011;3211;53.452;-2.264;2023-09-19T16:21:10;6.70;;;1.73;;
6356;SDS011;3211;53.452;-2.264;2023-09-19T16:23:52;3.33;;;1.63;;
6356;SDS011;3211;53.452;-2.264;2023-09-19T16:26:34;7.93;;;1.93;;
6356;SDS011;3211;53.452;-2.264;2023-09-19T16:29:17;3.03;;;1.43;;
6356;SDS011;3211;53.452;-2.264;2023-09-19T16:32:01;4.00;;;1.90;;
6356;SDS011;3211;53.452;-2.264;2023-09-19T16:34:43;3.80;;;1.53;;
6356;SDS011;3211;53.452;-2.264;2023-09-19T16:37:27;3.23;;;1.60;;
6356;SDS011;3211;53.452;-2.264;2023-09-19T16:40:09;4.20;;;1.60;;
6356;SDS011;3211;53.452;-2.264;2023-09-19T16:42:53;6.10;;;1.97;;
6356;SDS011;3211;53.452;-2.264;2023-09-19T16:45:35;3.77;;;1.97;;
6356;SDS011;3211;53.452;-2.264;2023-09-19T16:48:20;4.43;;;1.60;;
6356;SDS011;3211;53.452;-2.264;2023-09-19T16:51:02;5.07;;;2.00;;